メインページ
METAR-TAF:

METAR-TAF

空港 :

Fort Nelson, ブリティッシュコロンビア州, カナダ

緯度: 58-50N, 経度: 122-35W, 海抜: 382m

現時点の気象観測

当レポートは57分前の12:00(UTC)に作成
南/南西の風 3kt、南/南西から西の間で変化する
気温 5°C
湿度 87%
気圧 1017 hPa
視程: 24.1km
高度15000ftの千切れ雲あり

METAR: CYYE 231200Z 21003KT 200V260 15SM BKN150 05/03 A3004 RMK AC5 SLP184

時間: 05:57 (12:57 UTC)

予報

当レポートは6時間15分前の06:42(UTC)に作成
予報は23日の 07時(UTC)から 23日の 19時(UTC)まで有効
変向風 3kt
視程: 10km
高度15000ftの雲は散在している
23日の 07時(UTC)から 23日の 10時(UTC)まで一時的に
高度15000ftの千切れ雲あり
23日の 1700時(UTC)から
南/南東の風 6kt
視程: 10km
高度6000ftの雲は散在している
23日の 17時(UTC)から 23日の 19時(UTC)まで一時的に
視程: 6.4km

TAF: CYYE 230642Z 2307/2319 VRB03KT P6SM SCT150 TEMPO 2307/2310 BKN150 FM231700 15006KT P6SM SCT060 TEMPO 2317/2319 4SM FU RMK NXT FCST BY 231300Z

4,000以上の空港の気象観測と天気予報(METAR報とTAF報)

利用可能な観測所は地図上に黄色い丸と赤い丸で示す。

丸の上にカーソルを重ねると観測所名を参照できる。

次にクリックすると気象観測と天気予報を参照できる。

マップの切り替え:黒色「×」印の緑ボタンをクリックして拡大、「-」印の緑ボタンをクリックして縮小、緑色の三角印をクリックして隣りの地図に切り替え


METAR-TAF: